Time;durP1;ratioP1;P1;durP2;ratioP2;P2;SDS_P1;SDS_P2;PMS_P1;PMS_P2;Temp;Humidity;BMP_temperature;BMP_pressure;BME280_temperature;BME280_humidity;BME280_pressure;Samples;Min_cycle;Max_cycle;Signal;HPM_P1;HPM_P2
2024/03/22 00:01:54;;;;;;;0.50;0.50;;;8.50;99.90;;;;;;4447565;32;20076;-63
2024/03/22 00:04:22;;;;;;;2.08;0.85;;;8.50;99.90;;;;;;4455229;32;20116;-62
2024/03/22 00:06:49;;;;;;;0.60;0.60;;;8.50;99.90;;;;;;4455629;32;20076;-62
2024/03/22 00:09:15;;;;;;;2.40;0.90;;;8.60;99.90;;;;;;4453817;32;20065;-63
2024/03/22 00:11:41;;;;;;;1.02;0.85;;;8.60;99.90;;;;;;4456404;32;20074;-63
2024/03/22 00:14:07;;;;;;;1.42;0.68;;;8.40;99.90;;;;;;4455445;32;20490;-63
2024/03/22 00:16:33;;;;;;;0.52;0.52;;;8.50;99.90;;;;;;4455228;32;20072;-63
2024/03/22 00:18:59;;;;;;;0.98;0.85;;;8.60;99.90;;;;;;4455458;32;20130;-63
2024/03/22 00:21:24;;;;;;;0.30;0.30;;;8.60;99.90;;;;;;4454481;32;20060;-63
2024/03/22 00:23:52;;;;;;;1.77;0.82;;;8.50;99.90;;;;;;4454393;32;20119;-63
2024/03/22 00:26:17;;;;;;;0.68;0.68;;;8.40;99.90;;;;;;4453794;32;20060;-62
2024/03/22 00:28:43;;;;;;;0.50;0.50;;;8.30;99.90;;;;;;4454769;32;20121;-63
2024/03/22 00:31:09;;;;;;;0.60;0.60;;;8.30;99.90;;;;;;4452781;32;20056;-65
2024/03/22 00:33:34;;;;;;;1.87;1.33;;;8.30;99.90;;;;;;4446005;32;20088;-65
2024/03/22 00:36:00;;;;;;;0.73;0.73;;;8.30;99.90;;;;;;4450363;32;20431;-65
2024/03/22 00:38:25;;;;;;;0.55;0.55;;;8.30;99.90;;;;;;4447012;32;20064;-65
2024/03/22 00:40:51;;;;;;;1.90;1.10;;;8.30;99.90;;;;;;4452373;32;20064;-65
2024/03/22 00:43:16;;;;;;;0.57;0.57;;;8.40;99.90;;;;;;4450452;32;20398;-65
2024/03/22 00:45:42;;;;;;;2.58;1.27;;;8.40;99.90;;;;;;4453094;32;20069;-65
2024/03/22 00:48:07;;;;;;;0.62;0.62;;;8.30;99.90;;;;;;4452574;32;20072;-65
2024/03/22 00:50:33;;;;;;;0.52;0.52;;;8.30;99.90;;;;;;4455573;32;20061;-65
2024/03/22 00:52:59;;;;;;;1.52;1.00;;;8.40;99.90;;;;;;4451886;32;20084;-66
2024/03/22 00:55:24;;;;;;;2.25;1.35;;;8.40;99.90;;;;;;4447196;32;20527;-65
2024/03/22 00:57:50;;;;;;;0.35;0.35;;;8.30;99.90;;;;;;4452945;32;20077;-65
2024/03/22 01:00:17;;;;;;;8.07;2.40;;;8.30;99.90;;;;;;4453463;32;20130;-65
2024/03/22 01:02:44;;;;;;;0.73;0.68;;;8.30;99.90;;;;;;4453290;32;20177;-65
2024/03/22 01:05:10;;;;;;;1.90;0.65;;;8.20;99.90;;;;;;4452369;32;20119;-64
2024/03/22 01:07:37;;;;;;;1.23;0.73;;;8.10;99.90;;;;;;4453159;32;20064;-65
2024/03/22 01:10:04;;;;;;;0.30;0.30;;;8.10;99.90;;;;;;4448862;32;20502;-65
2024/03/22 01:12:29;;;;;;;0.62;0.62;;;8.30;99.90;;;;;;4452531;32;21198;-65
2024/03/22 01:14:55;;;;;;;2.17;1.12;;;8.20;99.90;;;;;;4444771;32;20065;-65
2024/03/22 01:17:20;;;;;;;4.93;0.90;;;8.20;99.90;;;;;;4453545;32;20064;-65
2024/03/22 01:19:46;;;;;;;1.00;0.70;;;8.20;99.90;;;;;;4445886;32;20061;-66
2024/03/22 01:22:11;;;;;;;0.60;0.60;;;8.20;99.90;;;;;;4453030;32;20089;-66
2024/03/22 01:24:37;;;;;;;0.57;0.50;;;8.10;99.90;;;;;;4452998;32;20429;-65
2024/03/22 01:27:03;;;;;;;0.50;0.50;;;8.10;99.90;;;;;;4451299;32;21373;-65
2024/03/22 01:29:31;;;;;;;0.82;0.82;;;8.10;99.90;;;;;;4452761;32;20073;-65
2024/03/22 01:31:58;;;;;;;0.45;0.45;;;8.00;99.90;;;;;;4452328;32;20802;-65
2024/03/22 01:34:24;;;;;;;9.40;1.00;;;8.20;99.90;;;;;;4453177;32;20106;-65
2024/03/22 01:36:50;;;;;;;0.70;0.70;;;8.10;99.90;;;;;;4450570;32;20112;-65
2024/03/22 01:39:16;;;;;;;8.52;1.52;;;8.00;99.90;;;;;;4452149;32;20171;-66
2024/03/22 01:41:43;;;;;;;1.15;0.95;;;8.00;99.90;;;;;;4452045;32;20064;-66
2024/03/22 01:44:09;;;;;;;4.20;2.10;;;8.10;99.90;;;;;;4452697;32;20437;-65
2024/03/22 01:46:34;;;;;;;1.10;0.75;;;8.00;99.90;;;;;;4454635;32;20544;-66
2024/03/22 01:49:00;;;;;;;1.23;1.12;;;8.10;99.90;;;;;;4452671;32;20082;-65
2024/03/22 01:51:26;;;;;;;4.68;1.15;;;8.20;99.90;;;;;;4452221;32;20435;-65
2024/03/22 01:53:53;;;;;;;0.47;0.47;;;8.10;99.90;;;;;;4453667;32;20072;-65
2024/03/22 01:56:19;;;;;;;0.40;0.40;;;8.10;99.90;;;;;;4452848;32;20056;-65
2024/03/22 01:58:45;;;;;;;12.23;1.10;;;8.00;99.90;;;;;;4451719;32;20062;-66
2024/03/22 02:01:11;;;;;;;0.82;0.80;;;8.00;99.90;;;;;;4453782;32;20069;-64
2024/03/22 02:03:36;;;;;;;0.80;0.77;;;8.00;99.90;;;;;;4453470;32;20524;-63
2024/03/22 02:06:02;;;;;;;0.35;0.35;;;8.00;99.90;;;;;;4452504;32;20139;-63
2024/03/22 02:08:28;;;;;;;0.60;0.60;;;8.10;99.90;;;;;;4452230;32;20061;-63
2024/03/22 02:10:54;;;;;;;0.47;0.47;;;8.20;99.90;;;;;;4455273;32;20082;-63
2024/03/22 02:13:20;;;;;;;2.83;0.50;;;8.20;99.90;;;;;;4454053;32;20085;-63
2024/03/22 02:15:45;;;;;;;1.00;0.90;;;8.30;99.90;;;;;;4453574;32;20068;-63
2024/03/22 02:18:11;;;;;;;1.62;1.08;;;8.30;99.90;;;;;;4453584;32;20057;-63
2024/03/22 02:20:36;;;;;;;2.97;1.25;;;8.30;99.90;;;;;;4454252;32;20069;-63
2024/03/22 02:23:02;;;;;;;1.92;0.82;;;8.40;99.90;;;;;;4452227;32;20072;-63
2024/03/22 02:25:27;;;;;;;0.60;0.60;;;8.40;99.90;;;;;;4453401;32;20430;-63
2024/03/22 02:27:53;;;;;;;11.95;0.95;;;8.30;99.90;;;;;;4450936;32;20525;-63
2024/03/22 02:30:18;;;;;;;0.77;0.60;;;8.40;99.90;;;;;;4454235;32;20139;-63
2024/03/22 02:32:44;;;;;;;0.77;0.50;;;8.40;99.90;;;;;;4453609;32;20089;-63
2024/03/22 02:35:09;;;;;;;0.65;0.65;;;8.30;99.90;;;;;;4453896;32;20472;-62
2024/03/22 02:37:35;;;;;;;0.55;0.55;;;8.30;99.90;;;;;;4452283;32;20070;-63
2024/03/22 02:40:00;;;;;;;0.82;0.82;;;8.30;99.90;;;;;;4450174;32;20080;-63
2024/03/22 02:42:27;;;;;;;0.40;0.40;;;8.10;99.90;;;;;;4451497;32;20580;-63
2024/03/22 02:44:53;;;;;;;0.77;0.77;;;8.30;99.90;;;;;;4451920;32;20126;-63
2024/03/22 02:47:18;;;;;;;2.05;1.12;;;8.40;99.90;;;;;;4454210;32;20103;-63
2024/03/22 02:49:44;;;;;;;5.18;1.02;;;8.30;99.90;;;;;;4454947;32;20116;-63
2024/03/22 02:52:09;;;;;;;0.68;0.68;;;8.30;99.90;;;;;;4454297;32;20076;-63
2024/03/22 02:54:34;;;;;;;0.70;0.70;;;8.30;99.90;;;;;;4453184;32;20425;-62
2024/03/22 02:57:01;;;;;;;0.57;0.57;;;8.20;99.90;;;;;;4454267;32;20085;-63
2024/03/22 02:59:27;;;;;;;0.50;0.50;;;8.20;99.90;;;;;;4453603;32;20515;-62
2024/03/22 03:01:53;;;;;;;3.30;1.05;;;8.30;99.90;;;;;;4456405;32;20088;-63
2024/03/22 03:04:18;;;;;;;0.65;0.62;;;8.20;99.90;;;;;;4456599;32;20068;-64
2024/03/22 03:06:45;;;;;;;0.80;0.75;;;8.20;99.90;;;;;;4456236;32;20470;-64
2024/03/22 03:09:11;;;;;;;0.52;0.52;;;8.20;99.90;;;;;;4454562;32;20159;-64
2024/03/22 03:11:39;;;;;;;0.73;0.73;;;8.20;99.90;;;;;;4456393;32;20053;-63
2024/03/22 03:14:04;;;;;;;3.70;1.37;;;8.40;99.90;;;;;;4447900;32;20076;-63
2024/03/22 03:16:30;;;;;;;0.73;0.73;;;8.40;99.90;;;;;;4455813;32;20087;-62
2024/03/22 03:18:55;;;;;;;0.90;0.85;;;8.30;99.90;;;;;;4455837;32;20064;-62
2024/03/22 03:21:21;;;;;;;0.62;0.62;;;8.20;99.90;;;;;;4456620;32;20072;-65
2024/03/22 03:23:47;;;;;;;0.80;0.45;;;8.10;99.90;;;;;;4454576;32;20077;-65
2024/03/22 03:26:12;;;;;;;0.47;0.47;;;8.20;99.90;;;;;;4454262;32;20417;-64
2024/03/22 03:28:38;;;;;;;0.43;0.43;;;8.20;99.90;;;;;;4452069;32;20081;-66
2024/03/22 03:31:03;;;;;;;2.97;0.50;;;8.20;99.90;;;;;;4453592;32;20505;-65
2024/03/22 03:33:29;;;;;;;2.08;0.73;;;8.20;99.90;;;;;;4454411;32;20080;-65
2024/03/22 03:35:55;;;;;;;1.45;0.77;;;8.30;99.90;;;;;;4454080;32;20436;-65
2024/03/22 03:38:21;;;;;;;0.40;0.40;;;8.20;99.90;;;;;;4454196;32;20089;-65
2024/03/22 03:40:46;;;;;;;1.02;0.80;;;8.10;99.90;;;;;;4452504;32;20430;-65
2024/03/22 03:43:12;;;;;;;3.75;1.15;;;8.10;99.90;;;;;;4454686;32;20115;-65
2024/03/22 03:45:37;;;;;;;0.68;0.68;;;8.00;99.90;;;;;;4454071;32;20406;-65
2024/03/22 03:48:03;;;;;;;1.65;0.57;;;7.90;99.90;;;;;;4456987;32;20077;-64
2024/03/22 03:50:29;;;;;;;0.70;0.70;;;8.00;99.90;;;;;;4453619;32;20068;-66
2024/03/22 03:52:54;;;;;;;0.50;0.50;;;8.10;99.90;;;;;;4455044;32;20076;-66
2024/03/22 03:55:20;;;;;;;0.60;0.60;;;8.20;99.90;;;;;;4455927;32;20068;-65
2024/03/22 03:57:45;;;;;;;0.70;0.70;;;8.20;99.90;;;;;;4453659;32;20126;-66
2024/03/22 04:00:12;;;;;;;0.68;0.68;;;8.10;99.90;;;;;;4454189;32;20069;-65
2024/03/22 04:02:38;;;;;;;0.80;0.80;;;8.10;99.90;;;;;;4454058;32;20077;-64
2024/03/22 04:05:03;;;;;;;0.60;0.60;;;8.10;99.90;;;;;;4451661;32;20084;-65
2024/03/22 04:07:29;;;;;;;2.05;0.75;;;8.00;99.90;;;;;;4452673;32;20061;-64
2024/03/22 04:09:54;;;;;;;0.60;0.60;;;8.10;99.90;;;;;;4456287;32;20056;-66
2024/03/22 04:12:20;;;;;;;3.62;0.98;;;8.20;99.90;;;;;;4455112;32;20455;-64
2024/03/22 04:14:45;;;;;;;2.53;1.20;;;8.20;99.90;;;;;;4454032;32;20142;-64
2024/03/22 04:17:11;;;;;;;0.45;0.45;;;8.20;99.90;;;;;;4453590;32;20753;-65
2024/03/22 04:19:36;;;;;;;0.57;0.57;;;8.20;99.90;;;;;;4454442;32;20424;-64
2024/03/22 04:22:02;;;;;;;0.50;0.50;;;8.30;99.90;;;;;;4453828;32;20069;-66
2024/03/22 04:24:27;;;;;;;3.17;1.15;;;8.30;99.90;;;;;;4454304;32;20570;-65
2024/03/22 04:26:53;;;;;;;2.10;0.75;;;8.40;99.90;;;;;;4454023;32;20085;-66
2024/03/22 04:29:18;;;;;;;6.75;0.93;;;8.30;99.90;;;;;;4452266;32;20476;-65
2024/03/22 04:31:44;;;;;;;0.47;0.47;;;8.30;99.90;;;;;;4453481;32;20076;-63
2024/03/22 04:34:10;;;;;;;0.70;0.70;;;8.20;99.90;;;;;;4456588;32;20068;-63
2024/03/22 04:36:35;;;;;;;2.17;0.90;;;8.20;99.90;;;;;;4456021;32;20084;-63
2024/03/22 04:39:01;;;;;;;0.60;0.60;;;8.30;99.90;;;;;;4455651;32;20084;-63
2024/03/22 04:41:26;;;;;;;0.50;0.50;;;8.40;99.90;;;;;;4453796;32;20146;-62
2024/03/22 04:43:52;;;;;;;2.17;0.55;;;8.40;99.90;;;;;;4454823;32;20090;-63
2024/03/22 04:46:17;;;;;;;0.88;0.75;;;8.30;99.90;;;;;;4455680;32;20115;-63
2024/03/22 04:48:43;;;;;;;2.53;0.98;;;8.40;99.90;;;;;;4455474;32;20715;-63
2024/03/22 04:51:08;;;;;;;0.43;0.43;;;8.40;99.90;;;;;;4457309;32;20064;-63
2024/03/22 04:53:34;;;;;;;0.30;0.30;;;8.40;99.90;;;;;;4454141;32;20056;-63
2024/03/22 04:55:59;;;;;;;0.57;0.50;;;8.40;99.90;;;;;;4453816;32;20068;-63
2024/03/22 04:58:24;;;;;;;1.27;0.60;;;8.40;99.90;;;;;;4456274;32;20129;-63
2024/03/22 05:00:56;;;;;;;0.60;0.60;;;8.40;99.90;;;;;;4455907;32;20093;-63
2024/03/22 05:03:22;;;;;;;0.90;0.73;;;8.40;99.90;;;;;;4446089;32;20493;-63
2024/03/22 05:05:49;;;;;;;0.73;0.60;;;8.40;99.90;;;;;;4455405;32;20068;-64
2024/03/22 05:08:15;;;;;;;0.35;0.35;;;8.40;99.90;;;;;;4455684;32;20080;-64
2024/03/22 05:10:40;;;;;;;0.40;0.40;;;8.50;99.90;;;;;;4454921;32;20119;-66
2024/03/22 05:13:06;;;;;;;1.85;0.50;;;8.50;99.90;;;;;;4443719;32;20062;-65
2024/03/22 05:15:31;;;;;;;0.60;0.60;;;8.50;99.90;;;;;;4445678;32;20182;-66
2024/03/22 05:17:58;;;;;;;0.40;0.40;;;8.40;99.90;;;;;;4454578;32;20080;-65
2024/03/22 05:20:24;;;;;;;1.42;0.90;;;8.50;99.90;;;;;;4452358;32;20789;-67
2024/03/22 05:22:49;;;;;;;2.10;0.85;;;8.50;99.90;;;;;;4443429;32;20053;-67
2024/03/22 05:25:15;;;;;;;1.45;0.65;;;8.50;99.90;;;;;;4447391;32;20069;-66
2024/03/22 05:27:42;;;;;;;0.70;0.70;;;8.40;99.90;;;;;;4452968;32;20056;-65
2024/03/22 05:30:09;;;;;;;0.65;0.65;;;8.60;99.90;;;;;;4452561;32;20741;-65
2024/03/22 05:32:35;;;;;;;4.10;0.80;;;8.50;99.90;;;;;;4452915;32;20061;-65
2024/03/22 05:35:03;;;;;;;0.60;0.60;;;8.60;99.90;;;;;;4430151;32;20521;-65
2024/03/22 05:37:29;;;;;;;0.65;0.52;;;8.60;99.90;;;;;;4452928;32;20414;-65
2024/03/22 05:39:55;;;;;;;5.95;1.87;;;8.50;99.90;;;;;;4451627;32;20080;-65
2024/03/22 05:42:20;;;;;;;0.40;0.40;;;8.40;99.90;;;;;;4452423;32;20505;-65
2024/03/22 05:44:46;;;;;;;0.70;0.70;;;8.50;99.90;;;;;;4453444;32;20077;-66
2024/03/22 05:47:11;;;;;;;0.73;0.73;;;8.60;99.90;;;;;;4452329;32;20093;-65
2024/03/22 05:49:37;;;;;;;1.15;0.85;;;8.60;99.90;;;;;;4453500;32;20100;-65
2024/03/22 05:52:03;;;;;;;0.40;0.40;;;8.60;99.90;;;;;;4447281;32;20361;-66
2024/03/22 05:54:28;;;;;;;0.47;0.47;;;8.60;99.90;;;;;;4447571;32;20111;-65
2024/03/22 05:56:54;;;;;;;3.85;1.67;;;8.60;99.90;;;;;;4450623;32;20464;-66
2024/03/22 05:59:20;;;;;;;0.60;0.60;;;8.50;99.90;;;;;;4449339;32;20544;-65
2024/03/22 06:01:45;;;;;;;0.68;0.55;;;8.50;99.90;;;;;;4449305;32;20110;-65
2024/03/22 06:04:11;;;;;;;3.60;1.40;;;8.50;99.90;;;;;;4450599;32;20069;-65
2024/03/22 06:06:37;;;;;;;1.02;0.65;;;8.50;99.90;;;;;;4423376;32;20069;-66
2024/03/22 06:09:03;;;;;;;10.70;1.52;;;8.60;99.90;;;;;;4441505;32;20080;-66
2024/03/22 06:11:30;;;;;;;0.73;0.73;;;8.70;99.90;;;;;;4442563;32;20077;-65
2024/03/22 06:13:56;;;;;;;0.50;0.50;;;8.70;99.90;;;;;;4430141;32;20065;-65
2024/03/22 06:16:22;;;;;;;0.60;0.60;;;8.70;99.90;;;;;;4448820;32;20491;-65
2024/03/22 06:18:48;;;;;;;0.57;0.57;;;8.70;99.90;;;;;;4450117;32;20131;-65
2024/03/22 06:21:14;;;;;;;0.50;0.50;;;8.70;99.90;;;;;;4430313;32;20089;-64
2024/03/22 06:23:41;;;;;;;0.32;0.32;;;8.70;99.90;;;;;;4445488;32;20433;-65
2024/03/22 06:26:06;;;;;;;0.40;0.40;;;8.70;99.90;;;;;;4433132;32;20608;-64
2024/03/22 06:28:32;;;;;;;1.27;1.12;;;8.60;99.90;;;;;;4434322;32;20064;-65
2024/03/22 06:30:57;;;;;;;2.42;1.17;;;8.70;99.90;;;;;;4445452;32;20080;-65
2024/03/22 06:33:23;;;;;;;3.50;1.00;;;8.80;99.90;;;;;;4445757;32;20096;-65
2024/03/22 06:35:49;;;;;;;2.33;0.93;;;8.90;99.90;;;;;;4444787;32;20540;-64
2024/03/22 06:38:15;;;;;;;1.40;0.90;;;8.80;99.90;;;;;;4445213;32;20100;-63
2024/03/22 06:40:40;;;;;;;1.05;1.02;;;8.90;99.90;;;;;;4440456;32;20477;-65
2024/03/22 06:43:06;;;;;;;2.90;1.08;;;8.90;99.90;;;;;;4436721;32;20089;-64
2024/03/22 06:45:31;;;;;;;0.90;0.85;;;8.90;99.90;;;;;;4444581;32;20084;-64
2024/03/22 06:47:57;;;;;;;0.55;0.55;;;9.00;99.90;;;;;;4447288;32;20080;-65
2024/03/22 06:50:24;;;;;;;1.52;0.80;;;9.00;99.90;;;;;;4443784;32;20076;-65
2024/03/22 06:52:53;;;;;;;0.80;0.57;;;9.00;99.90;;;;;;4441441;32;20106;-65
2024/03/22 06:55:19;;;;;;;0.70;0.70;;;9.00;99.90;;;;;;4438851;32;20073;-65
2024/03/22 06:57:46;;;;;;;1.08;0.80;;;9.20;99.90;;;;;;4429042;32;20076;-64
2024/03/22 07:00:14;;;;;;;13.77;0.47;;;9.20;99.90;;;;;;4434787;32;20089;-66
2024/03/22 07:02:40;;;;;;;0.98;0.95;;;9.20;99.90;;;;;;4425609;32;20162;-64
2024/03/22 07:05:09;;;;;;;0.98;0.80;;;9.20;99.90;;;;;;4426077;32;20568;-63
2024/03/22 07:07:35;;;;;;;1.35;0.70;;;9.20;99.90;;;;;;4411792;32;21245;-63
2024/03/22 07:10:02;;;;;;;0.73;0.73;;;9.20;99.90;;;;;;4432201;32;20648;-64
2024/03/22 07:12:27;;;;;;;1.58;1.05;;;9.30;99.90;;;;;;4428058;32;20138;-63
2024/03/22 07:14:53;;;;;;;2.40;1.08;;;9.30;99.90;;;;;;4422070;32;20181;-63
2024/03/22 07:17:24;;;;;;;2.05;1.15;;;9.30;99.90;;;;;;4436822;32;20093;-64
2024/03/22 07:19:51;;;;;;;10.38;1.70;;;9.40;99.90;;;;;;4425081;32;20145;-64
2024/03/22 07:22:17;;;;;;;5.65;1.50;;;9.50;99.90;;;;;;4430240;32;21090;-63
2024/03/22 07:24:42;;;;;;;0.43;0.43;;;9.40;99.90;;;;;;4429225;32;20076;-63
2024/03/22 07:27:10;;;;;;;2.17;0.73;;;9.40;99.90;;;;;;4424967;32;20075;-63
2024/03/22 07:29:37;;;;;;;1.52;0.70;;;9.50;99.90;;;;;;4425792;32;20096;-63
2024/03/22 07:32:03;;;;;;;10.60;0.93;;;9.50;99.90;;;;;;4426520;32;20092;-63
2024/03/22 07:34:29;;;;;;;1.00;0.85;;;9.50;99.90;;;;;;4425615;32;20191;-63
2024/03/22 07:36:54;;;;;;;1.85;0.80;;;9.50;99.90;;;;;;4433080;32;20084;-62
2024/03/22 07:39:20;;;;;;;1.15;1.05;;;9.50;99.90;;;;;;4413852;32;20064;-63
2024/03/22 07:41:45;;;;;;;0.65;0.65;;;9.50;99.90;;;;;;4423789;32;20089;-62
2024/03/22 07:44:11;;;;;;;4.25;1.12;;;9.50;99.90;;;;;;4427085;32;20403;-62
2024/03/22 07:46:36;;;;;;;0.50;0.50;;;9.50;99.90;;;;;;4428592;32;20064;-62
2024/03/22 07:49:04;;;;;;;3.25;0.85;;;9.50;99.90;;;;;;4416007;32;20678;-62
2024/03/22 07:51:29;;;;;;;0.60;0.60;;;9.60;99.90;;;;;;4434590;32;20073;-63
2024/03/22 07:53:55;;;;;;;0.40;0.40;;;9.60;99.90;;;;;;4419576;32;20081;-63
2024/03/22 07:56:21;;;;;;;0.82;0.65;;;9.50;99.90;;;;;;4428850;32;20616;-63
2024/03/22 07:58:46;;;;;;;1.17;0.62;;;9.50;99.90;;;;;;4422156;32;20111;-63
2024/03/22 08:01:12;;;;;;;0.47;0.47;;;9.60;99.90;;;;;;4421488;32;21583;-62
2024/03/22 08:03:37;;;;;;;4.57;1.08;;;9.70;99.90;;;;;;4424646;32;20285;-63
2024/03/22 08:06:03;;;;;;;2.53;1.27;;;9.70;99.90;;;;;;4431192;32;20166;-63
2024/03/22 08:08:29;;;;;;;0.60;0.60;;;9.80;99.90;;;;;;4431505;32;20097;-62
2024/03/22 08:10:55;;;;;;;4.40;1.37;;;9.90;99.90;;;;;;4429207;32;20124;-62
2024/03/22 08:13:20;;;;;;;1.48;0.90;;;9.90;99.90;;;;;;4431212;32;20306;-62
2024/03/22 08:15:46;;;;;;;1.10;1.10;;;9.90;99.90;;;;;;4427763;32;20077;-62
2024/03/22 08:18:13;;;;;;;3.22;1.08;;;10.00;99.90;;;;;;4427661;32;20472;-63
2024/03/22 08:20:39;;;;;;;1.10;1.02;;;10.00;99.90;;;;;;4426343;32;20607;-63
2024/03/22 08:23:05;;;;;;;3.83;1.62;;;10.10;99.90;;;;;;4423776;32;20088;-63
2024/03/22 08:25:30;;;;;;;1.00;0.73;;;10.00;99.90;;;;;;4426104;32;20881;-63
2024/03/22 08:27:56;;;;;;;0.65;0.65;;;10.10;99.90;;;;;;4434479;32;20087;-62
2024/03/22 08:30:22;;;;;;;0.95;0.85;;;10.20;99.90;;;;;;4434120;32;21465;-63
2024/03/22 08:32:48;;;;;;;3.33;1.27;;;10.10;99.90;;;;;;4423558;32;20073;-64
2024/03/22 08:35:14;;;;;;;23.20;1.10;;;10.20;99.90;;;;;;4424711;32;20128;-64
2024/03/22 08:37:39;;;;;;;2.37;0.85;;;10.20;99.90;;;;;;4435386;32;20097;-63
2024/03/22 08:40:05;;;;;;;0.80;0.80;;;10.20;99.90;;;;;;4443242;32;20092;-66
2024/03/22 08:42:32;;;;;;;0.98;0.70;;;10.30;99.90;;;;;;4415975;32;20127;-65
2024/03/22 08:44:57;;;;;;;0.60;0.60;;;10.30;99.90;;;;;;4418958;32;20648;-65
2024/03/22 08:47:23;;;;;;;6.37;1.52;;;10.40;99.90;;;;;;4421951;32;20096;-66
2024/03/22 08:49:49;;;;;;;0.40;0.40;;;10.50;99.90;;;;;;4423786;32;20084;-66
2024/03/22 08:52:14;;;;;;;0.82;0.80;;;10.40;99.90;;;;;;4422850;32;20109;-66
2024/03/22 08:54:40;;;;;;;2.40;1.52;;;10.40;99.90;;;;;;4425537;32;20096;-65
2024/03/22 08:57:06;;;;;;;0.60;0.60;;;10.40;99.90;;;;;;4414063;32;20327;-64
2024/03/22 08:59:32;;;;;;;0.70;0.70;;;10.40;99.90;;;;;;4413686;32;20463;-65
2024/03/22 09:01:59;;;;;;;0.93;0.93;;;10.40;99.90;;;;;;4418065;32;20119;-66
2024/03/22 09:04:25;;;;;;;3.85;1.12;;;10.50;99.90;;;;;;4399456;32;21210;-66
2024/03/22 09:06:50;;;;;;;0.55;0.55;;;10.60;99.90;;;;;;4417194;32;20694;-65
2024/03/22 09:09:16;;;;;;;3.03;1.37;;;10.60;99.90;;;;;;4410575;32;20118;-65
2024/03/22 09:11:42;;;;;;;5.95;1.60;;;10.60;99.90;;;;;;4417980;32;20303;-65
2024/03/22 09:14:07;;;;;;;1.75;0.82;;;10.70;99.90;;;;;;4421005;32;20097;-65
2024/03/22 09:16:33;;;;;;;0.70;0.70;;;10.80;99.90;;;;;;4396021;32;20084;-62
2024/03/22 09:18:58;;;;;;;0.73;0.73;;;10.80;99.90;;;;;;4423753;32;20096;-66
2024/03/22 09:21:24;;;;;;;1.15;0.85;;;10.90;99.90;;;;;;4422042;32;20812;-65
2024/03/22 09:23:50;;;;;;;3.87;1.42;;;11.00;99.90;;;;;;4423393;32;20199;-66
2024/03/22 09:26:15;;;;;;;2.55;1.15;;;11.00;99.90;;;;;;4403858;32;20069;-64
2024/03/22 09:28:42;;;;;;;6.45;1.75;;;11.20;99.90;;;;;;4416220;32;20684;-64
2024/03/22 09:31:07;;;;;;;1.30;0.95;;;11.20;99.90;;;;;;4426490;32;20767;-64
2024/03/22 09:33:34;;;;;;;0.73;0.65;;;11.30;99.90;;;;;;4428080;32;20064;-65
2024/03/22 09:36:00;;;;;;;1.95;1.45;;;11.30;99.90;;;;;;4429070;32;20079;-65
2024/03/22 09:38:26;;;;;;;1.95;1.40;;;11.30;99.90;;;;;;4418684;32;20109;-65
2024/03/22 09:40:54;;;;;;;0.70;0.70;;;11.30;99.90;;;;;;4418740;32;20081;-65
2024/03/22 09:43:20;;;;;;;1.23;0.75;;;11.40;99.90;;;;;;4421305;32;20570;-65
2024/03/22 09:45:48;;;;;;;17.45;1.87;;;11.40;99.90;;;;;;4403301;32;20101;-65
2024/03/22 09:48:14;;;;;;;7.75;0.90;;;11.40;99.90;;;;;;4412293;32;20077;-65
2024/03/22 09:50:41;;;;;;;1.27;0.95;;;11.40;99.90;;;;;;4428106;32;20557;-63
2024/03/22 09:53:07;;;;;;;1.08;0.80;;;11.40;99.90;;;;;;4437062;32;20133;-63
2024/03/22 09:55:36;;;;;;;2.72;1.08;;;11.40;99.90;;;;;;4433039;32;20422;-63
2024/03/22 09:58:03;;;;;;;1.37;1.17;;;11.30;99.90;;;;;;4429028;32;20061;-64
2024/03/22 10:00:31;;;;;;;1.90;0.68;;;11.30;99.90;;;;;;4421417;32;20085;-63
2024/03/22 10:02:57;;;;;;;1.67;1.12;;;11.40;99.90;;;;;;4431971;32;20096;-64
2024/03/22 10:05:22;;;;;;;2.90;1.30;;;11.60;99.90;;;;;;4428308;32;20081;-63
2024/03/22 10:07:49;;;;;;;2.60;0.90;;;11.60;99.90;;;;;;4428393;32;20113;-63
2024/03/22 10:10:15;;;;;;;9.25;1.02;;;11.50;99.90;;;;;;4430725;32;20478;-62
2024/03/22 10:12:44;;;;;;;3.40;1.00;;;11.50;99.90;;;;;;4418194;32;20845;-63
2024/03/22 10:15:11;;;;;;;0.50;0.50;;;11.60;99.90;;;;;;4424139;32;20064;-63
2024/03/22 10:17:37;;;;;;;1.85;0.75;;;11.80;99.90;;;;;;4424321;32;20729;-63
2024/03/22 10:20:03;;;;;;;2.05;1.25;;;11.90;99.90;;;;;;4433549;32;20073;-63
2024/03/22 10:22:29;;;;;;;4.20;1.10;;;12.10;99.90;;;;;;4431420;32;20081;-64
2024/03/22 10:25:00;;;;;;;3.35;0.85;;;12.10;99.90;;;;;;4403572;32;20124;-64
2024/03/22 10:27:29;;;;;;;0.60;0.60;;;12.00;99.90;;;;;;4420660;32;20100;-64
2024/03/22 10:29:54;;;;;;;1.80;0.90;;;12.10;99.90;;;;;;4429391;32;20093;-63
2024/03/22 10:32:20;;;;;;;3.40;1.35;;;12.20;99.90;;;;;;4422817;32;20458;-63
2024/03/22 10:34:46;;;;;;;0.70;0.57;;;12.30;99.90;;;;;;4416921;32;20244;-64
2024/03/22 10:37:15;;;;;;;0.80;0.73;;;12.30;99.90;;;;;;4419399;32;20081;-64
2024/03/22 10:39:43;;;;;;;1.42;0.90;;;12.40;99.90;;;;;;4424681;32;20094;-62
2024/03/22 10:42:11;;;;;;;0.77;0.77;;;12.50;99.90;;;;;;4430963;32;20096;-63
2024/03/22 10:44:36;;;;;;;2.62;1.08;;;12.40;99.90;;;;;;4436587;32;20219;-64
2024/03/22 10:47:05;;;;;;;11.07;1.08;;;12.60;99.90;;;;;;4432942;32;20541;-65
2024/03/22 10:49:36;;;;;;;11.07;1.52;;;12.90;99.90;;;;;;4438074;32;20458;-64
2024/03/22 10:52:05;;;;;;;1.52;1.05;;;13.10;99.90;;;;;;4434995;32;20408;-64
2024/03/22 10:54:38;;;;;;;2.20;1.17;;;13.30;99.90;;;;;;4436721;32;20524;-63
2024/03/22 10:57:06;;;;;;;1.35;1.12;;;13.40;99.90;;;;;;4435781;32;20077;-63
2024/03/22 10:59:34;;;;;;;1.95;1.37;;;13.50;99.90;;;;;;4439702;32;20403;-64
2024/03/22 11:02:03;;;;;;;1.87;0.73;;;13.50;99.90;;;;;;4433380;32;20678;-65
2024/03/22 11:04:30;;;;;;;1.85;1.30;;;13.60;99.90;;;;;;4438970;32;20080;-65
2024/03/22 11:06:57;;;;;;;5.03;1.00;;;13.60;99.90;;;;;;4438959;32;20313;-64
2024/03/22 11:09:25;;;;;;;1.62;0.77;;;13.50;99.90;;;;;;4440374;32;20069;-65
2024/03/22 11:11:52;;;;;;;7.03;2.47;;;13.40;99.90;;;;;;4437752;32;20076;-65
2024/03/22 11:14:18;;;;;;;2.40;1.58;;;13.20;99.90;;;;;;4436136;32;20080;-68
2024/03/22 11:16:45;;;;;;;3.58;1.00;;;13.10;99.90;;;;;;4438500;32;20814;-66
2024/03/22 11:19:10;;;;;;;0.50;0.50;;;13.10;99.90;;;;;;4425220;32;20105;-67
2024/03/22 11:21:36;;;;;;;1.75;0.80;;;13.00;99.90;;;;;;4435857;32;20544;-65
2024/03/22 11:24:02;;;;;;;1.27;0.77;;;13.00;99.90;;;;;;4438508;32;20124;-66
2024/03/22 11:26:27;;;;;;;2.97;1.20;;;13.00;99.90;;;;;;4437248;32;20089;-65
2024/03/22 11:28:53;;;;;;;0.40;0.40;;;13.10;99.90;;;;;;4429859;32;20394;-66
2024/03/22 11:31:21;;;;;;;2.35;0.70;;;13.10;99.90;;;;;;4433053;32;20535;-65
2024/03/22 11:33:48;;;;;;;5.35;1.10;;;13.10;99.90;;;;;;4444011;32;20125;-65
2024/03/22 11:36:14;;;;;;;1.70;0.77;;;13.00;99.90;;;;;;4441442;32;20402;-65
2024/03/22 11:38:40;;;;;;;2.83;0.75;;;13.00;99.90;;;;;;4440316;32;20623;-66
2024/03/22 11:41:06;;;;;;;1.17;0.82;;;13.00;99.90;;;;;;4427579;32;20807;-66
2024/03/22 11:43:32;;;;;;;3.45;1.52;;;13.00;99.90;;;;;;4442050;32;20139;-67
2024/03/22 11:45:58;;;;;;;0.45;0.45;;;13.10;99.90;;;;;;4419768;32;20096;-66
2024/03/22 11:48:23;;;;;;;0.82;0.80;;;13.10;99.90;;;;;;4427699;32;20478;-66
2024/03/22 11:50:50;;;;;;;1.75;0.90;;;13.10;99.90;;;;;;4422997;32;21077;-67
2024/03/22 11:53:17;;;;;;;2.15;1.20;;;13.00;99.90;;;;;;4418762;32;87522;-66
2024/03/22 11:55:42;;;;;;;0.73;0.73;;;13.00;99.90;;;;;;4417580;32;20130;-66
2024/03/22 11:58:10;;;;;;;0.85;0.70;;;12.90;99.90;;;;;;4410976;32;20144;-66
2024/03/22 12:00:36;;;;;;;1.30;1.20;;;12.90;99.90;;;;;;4410868;32;20088;-66
2024/03/22 12:03:05;;;;;;;1.98;1.60;;;12.90;99.90;;;;;;4413690;32;20462;-66
2024/03/22 12:05:31;;;;;;;0.90;0.90;;;12.80;99.90;;;;;;4421840;32;21536;-66
2024/03/22 12:07:57;;;;;;;7.90;1.25;;;12.80;99.90;;;;;;4415205;32;21457;-67
2024/03/22 12:10:22;;;;;;;1.40;0.85;;;12.70;99.90;;;;;;4423492;32;20564;-67
2024/03/22 12:12:48;;;;;;;0.80;0.80;;;12.70;99.90;;;;;;4423734;32;20089;-66
2024/03/22 12:15:13;;;;;;;0.50;0.50;;;12.70;99.90;;;;;;4421144;32;21243;-65
2024/03/22 12:17:40;;;;;;;0.75;0.75;;;12.60;99.90;;;;;;4417298;32;20615;-66
2024/03/22 12:20:08;;;;;;;1.12;0.90;;;12.60;99.90;;;;;;4418824;32;20079;-65
2024/03/22 12:22:34;;;;;;;2.12;0.70;;;12.60;99.90;;;;;;4423665;32;20060;-67
2024/03/22 12:25:00;;;;;;;1.30;0.68;;;12.60;99.90;;;;;;4417298;32;20089;-66
2024/03/22 12:27:25;;;;;;;0.90;0.90;;;12.60;99.90;;;;;;4413519;32;20485;-65
2024/03/22 12:29:51;;;;;;;0.85;0.82;;;12.50;99.90;;;;;;4411871;32;20088;-65
2024/03/22 12:32:16;;;;;;;0.60;0.60;;;12.50;99.90;;;;;;4416071;32;20765;-67
2024/03/22 12:34:42;;;;;;;0.98;0.65;;;12.50;99.90;;;;;;4418648;32;20080;-66
2024/03/22 12:37:08;;;;;;;4.55;1.02;;;12.40;99.90;;;;;;4429054;32;20081;-66
2024/03/22 12:39:35;;;;;;;2.80;0.90;;;12.40;99.90;;;;;;4431164;32;20347;-67
2024/03/22 12:42:01;;;;;;;0.95;0.77;;;12.40;99.90;;;;;;4431222;32;20358;-65
2024/03/22 12:44:28;;;;;;;1.20;0.88;;;12.40;99.90;;;;;;4428090;32;20113;-65
2024/03/22 12:46:54;;;;;;;1.70;0.70;;;12.30;99.90;;;;;;4431901;32;20105;-65